createdAt,value
2023-08-08T00:02:01.875Z,15.50
2023-08-08T00:04:28.922Z,11.80
2023-08-08T00:06:55.870Z,12.75
2023-08-08T00:09:22.779Z,15.45
2023-08-08T00:11:50.026Z,16.80
2023-08-08T00:14:16.998Z,15.07
2023-08-08T00:16:43.921Z,21.80
2023-08-08T00:19:10.988Z,14.80
2023-08-08T00:21:37.932Z,14.52
2023-08-08T00:24:05.180Z,14.50
2023-08-08T00:26:32.080Z,15.18
2023-08-08T00:28:58.972Z,17.38
2023-08-08T00:31:26.005Z,17.08
2023-08-08T00:33:53.016Z,14.85
2023-08-08T00:36:19.955Z,14.05
2023-08-08T00:38:46.883Z,15.15
2023-08-08T00:41:13.809Z,16.63
2023-08-08T00:43:40.743Z,12.63
2023-08-08T00:46:08.324Z,11.00
2023-08-08T00:48:35.460Z,20.42
2023-08-08T00:51:02.512Z,13.55
2023-08-08T00:53:32.667Z,20.25
2023-08-08T00:56:00.442Z,17.00
2023-08-08T00:58:28.771Z,12.27
2023-08-08T01:00:58.861Z,14.57
2023-08-08T01:03:25.928Z,13.45
2023-08-08T01:06:11.947Z,17.58
2023-08-08T01:09:10.320Z,15.35
2023-08-08T01:11:38.981Z,18.17
2023-08-08T01:14:08.973Z,15.68
2023-08-08T01:16:36.302Z,16.13
2023-08-08T01:19:06.020Z,12.43
2023-08-08T01:21:41.796Z,13.25
2023-08-08T01:24:24.972Z,19.02
2023-08-08T01:26:52.064Z,15.57
2023-08-08T01:29:19.316Z,12.20
2023-08-08T01:31:46.325Z,14.43
2023-08-08T01:34:13.839Z,17.58
2023-08-08T01:36:50.260Z,12.88
2023-08-08T01:39:23.783Z,19.15
2023-08-08T01:41:51.936Z,14.32
2023-08-08T01:44:19.526Z,17.17
2023-08-08T01:46:47.039Z,12.73
2023-08-08T01:49:14.022Z,13.13
2023-08-08T01:51:40.894Z,14.32
2023-08-08T01:54:07.834Z,16.50
2023-08-08T01:56:34.715Z,11.60
2023-08-08T01:59:02.119Z,13.90
2023-08-08T02:01:29.142Z,15.15
2023-08-08T02:03:56.143Z,13.23
2023-08-08T02:06:23.751Z,14.23
2023-08-08T02:08:50.652Z,12.60
2023-08-08T02:11:17.574Z,12.13
2023-08-08T02:13:44.462Z,16.77
2023-08-08T02:16:11.401Z,13.95
2023-08-08T02:18:41.730Z,13.35
2023-08-08T02:21:09.481Z,13.93
2023-08-08T02:23:36.593Z,16.42
2023-08-08T02:26:03.666Z,15.98
2023-08-08T02:28:30.663Z,12.57
2023-08-08T02:30:57.610Z,11.18
2023-08-08T02:33:24.620Z,10.95
2023-08-08T02:35:51.510Z,15.35
2023-08-08T02:38:18.422Z,14.85
2023-08-08T02:40:45.338Z,13.45
2023-08-08T02:43:12.738Z,14.07
2023-08-08T02:45:39.708Z,13.73
2023-08-08T02:48:07.081Z,14.25
2023-08-08T02:50:34.133Z,17.02
2023-08-08T02:53:01.168Z,12.15
2023-08-08T02:55:28.111Z,11.70
2023-08-08T02:57:55.079Z,15.55
2023-08-08T03:00:22.147Z,14.73
2023-08-08T03:02:49.138Z,12.60
2023-08-08T03:05:16.205Z,12.88
2023-08-08T03:07:43.170Z,11.32
2023-08-08T03:10:10.433Z,13.95
2023-08-08T03:12:39.089Z,16.15
2023-08-08T03:15:07.196Z,11.52
2023-08-08T03:17:34.640Z,13.65
2023-08-08T03:20:04.675Z,10.65
2023-08-08T03:22:31.713Z,13.20
2023-08-08T03:24:59.447Z,13.00
2023-08-08T03:27:26.431Z,12.77
2023-08-08T03:29:53.293Z,11.10
2023-08-08T03:32:20.241Z,12.35
2023-08-08T03:34:47.149Z,14.27
2023-08-08T03:37:14.087Z,11.80
2023-08-08T03:39:41.071Z,15.75
2023-08-08T03:42:08.557Z,13.73
2023-08-08T03:44:35.462Z,10.02
2023-08-08T03:47:17.354Z,10.73
2023-08-08T03:49:45.918Z,10.57
2023-08-08T03:52:13.324Z,10.63
2023-08-08T03:54:40.574Z,12.43
2023-08-08T03:57:07.970Z,12.20
2023-08-08T03:59:34.945Z,13.40
2023-08-08T04:02:02.203Z,14.07
2023-08-08T04:04:29.357Z,13.32
2023-08-08T04:06:56.263Z,11.90
2023-08-08T04:09:23.178Z,10.40
2023-08-08T04:11:50.162Z,12.65
2023-08-08T04:14:17.041Z,11.23
2023-08-08T04:16:44.060Z,11.55
2023-08-08T04:19:10.980Z,13.60
2023-08-08T04:21:37.918Z,14.10
2023-08-08T04:24:05.077Z,17.77
2023-08-08T04:26:31.963Z,14.43
2023-08-08T04:28:58.940Z,10.00
2023-08-08T04:31:27.029Z,14.02
2023-08-08T04:34:02.231Z,11.48
2023-08-08T04:36:30.754Z,14.85
2023-08-08T04:38:57.692Z,13.80
2023-08-08T04:41:24.697Z,14.40
2023-08-08T04:43:51.871Z,11.48
2023-08-08T04:46:19.092Z,11.88
2023-08-08T04:48:46.010Z,10.38
2023-08-08T04:51:12.966Z,10.13
2023-08-08T04:53:39.941Z,12.13
2023-08-08T04:56:06.829Z,10.80
2023-08-08T04:58:33.829Z,12.15
2023-08-08T05:01:00.866Z,8.73
2023-08-08T05:03:27.892Z,13.23
2023-08-08T05:05:54.929Z,11.30
2023-08-08T05:08:21.956Z,11.75
2023-08-08T05:10:48.876Z,11.60
2023-08-08T05:13:15.818Z,9.77
2023-08-08T05:15:42.800Z,14.43
2023-08-08T05:18:09.714Z,13.02
2023-08-08T05:20:36.825Z,15.95
2023-08-08T05:23:03.891Z,8.98
2023-08-08T05:25:31.048Z,11.45
2023-08-08T05:27:58.027Z,11.43
2023-08-08T05:30:25.096Z,10.27
2023-08-08T05:32:52.142Z,10.98
2023-08-08T05:35:19.085Z,11.15
2023-08-08T05:37:46.029Z,11.98
2023-08-08T05:40:12.979Z,13.65
2023-08-08T05:42:40.577Z,13.43
2023-08-08T05:45:08.634Z,10.70
2023-08-08T05:47:35.581Z,15.13
2023-08-08T05:50:03.242Z,14.02
2023-08-08T05:52:30.527Z,10.68
2023-08-08T05:54:57.537Z,11.20
2023-08-08T05:57:24.522Z,12.15
2023-08-08T05:59:51.451Z,11.20
2023-08-08T06:02:18.725Z,12.40
2023-08-08T06:04:46.443Z,12.45
2023-08-08T06:07:13.394Z,13.45
2023-08-08T06:09:40.352Z,10.65
2023-08-08T06:12:08.498Z,15.23
2023-08-08T06:14:35.467Z,14.88
2023-08-08T06:17:02.471Z,8.20
2023-08-08T06:19:29.345Z,9.85
2023-08-08T06:21:56.373Z,11.05
2023-08-08T06:24:23.337Z,8.30
2023-08-08T06:26:50.443Z,13.38
2023-08-08T06:29:17.784Z,9.68
2023-08-08T06:31:44.832Z,13.27
2023-08-08T06:34:11.799Z,8.88
2023-08-08T06:36:39.412Z,9.35
2023-08-08T06:39:06.956Z,9.70
2023-08-08T06:41:34.143Z,9.45
2023-08-08T06:44:01.071Z,8.95
2023-08-08T06:46:28.093Z,9.20
2023-08-08T06:48:59.909Z,9.20
2023-08-08T06:51:27.086Z,9.45
2023-08-08T06:53:54.504Z,9.88
2023-08-08T06:56:21.522Z,9.60
2023-08-08T06:58:49.013Z,9.57
2023-08-08T07:01:16.069Z,9.93
2023-08-08T07:03:43.059Z,9.13
2023-08-08T07:06:11.013Z,9.60
2023-08-08T07:08:40.421Z,10.55
2023-08-08T07:11:07.596Z,11.60
2023-08-08T07:13:34.684Z,11.85
2023-08-08T07:16:01.987Z,8.00
2023-08-08T07:18:29.601Z,9.70
2023-08-08T07:20:57.730Z,12.00
2023-08-08T07:23:24.975Z,8.63
2023-08-08T07:25:52.068Z,10.93
2023-08-08T07:28:19.242Z,10.23
2023-08-08T07:30:46.340Z,18.75
2023-08-08T07:33:14.801Z,13.85
2023-08-08T07:35:41.936Z,11.15
2023-08-08T07:38:09.530Z,8.98
2023-08-08T07:40:37.244Z,12.27
2023-08-08T07:43:04.431Z,10.75
2023-08-08T07:45:31.464Z,9.02
2023-08-08T07:47:58.400Z,12.45
2023-08-08T07:50:25.469Z,8.63
2023-08-08T07:52:52.469Z,8.40
2023-08-08T07:55:19.473Z,8.20
2023-08-08T07:57:46.842Z,11.02
2023-08-08T08:00:14.512Z,9.60
2023-08-08T08:02:44.172Z,9.70
2023-08-08T08:05:12.653Z,11.65
2023-08-08T08:07:40.368Z,10.70
2023-08-08T08:10:11.045Z,7.15
2023-08-08T08:12:38.212Z,9.43
2023-08-08T08:15:06.060Z,10.13
2023-08-08T08:17:33.417Z,10.95
2023-08-08T08:20:00.554Z,10.90
2023-08-08T08:22:27.458Z,13.80
2023-08-08T08:24:54.472Z,15.18
2023-08-08T08:27:21.623Z,10.35
2023-08-08T08:29:49.169Z,12.85
2023-08-08T08:32:16.194Z,12.88
2023-08-08T08:34:43.377Z,11.23
2023-08-08T08:37:10.372Z,13.65
2023-08-08T08:39:37.297Z,10.90
2023-08-08T08:42:06.482Z,7.78
2023-08-08T08:44:33.939Z,14.50
2023-08-08T08:47:05.997Z,14.15
2023-08-08T08:49:33.610Z,8.60
2023-08-08T08:52:06.090Z,10.27
2023-08-08T08:54:34.208Z,10.73
2023-08-08T08:57:01.202Z,9.55
2023-08-08T08:59:28.380Z,10.75
2023-08-08T09:01:56.558Z,11.50
2023-08-08T09:04:24.320Z,7.45
2023-08-08T09:06:53.770Z,10.98
2023-08-08T09:09:23.058Z,8.52
2023-08-08T09:12:02.214Z,9.20
2023-08-08T09:14:29.408Z,10.60
2023-08-08T09:16:57.842Z,7.53
2023-08-08T09:19:25.780Z,9.73
2023-08-08T09:21:54.640Z,11.00
2023-08-08T09:24:21.962Z,9.30
2023-08-08T09:26:48.886Z,13.50
2023-08-08T09:29:16.436Z,9.38
2023-08-08T09:31:43.545Z,11.20
2023-08-08T09:34:10.760Z,6.55
2023-08-08T09:36:38.096Z,14.70
2023-08-08T09:39:06.323Z,17.00
2023-08-08T09:41:33.633Z,8.35
2023-08-08T09:44:01.749Z,7.97
2023-08-08T09:46:34.692Z,14.88
2023-08-08T09:49:02.831Z,10.07
2023-08-08T09:51:30.196Z,9.55
2023-08-08T09:53:58.022Z,10.82
2023-08-08T09:56:26.627Z,17.35
2023-08-08T09:58:54.584Z,14.63
2023-08-08T10:01:22.576Z,9.73
2023-08-08T10:03:53.101Z,12.40
2023-08-08T10:06:20.750Z,11.40
2023-08-08T10:08:48.293Z,7.95
2023-08-08T10:11:16.139Z,9.77
2023-08-08T10:13:51.940Z,8.27
2023-08-08T10:16:19.650Z,10.88
2023-08-08T10:19:04.929Z,6.07
2023-08-08T10:21:44.830Z,9.95
2023-08-08T10:24:12.523Z,7.70
2023-08-08T10:27:01.623Z,7.97
2023-08-08T10:29:30.961Z,11.80
2023-08-08T10:32:07.194Z,7.90
2023-08-08T10:34:47.925Z,13.90
2023-08-08T10:37:19.135Z,6.35
2023-08-08T10:40:00.954Z,14.70
2023-08-08T10:42:29.867Z,10.65
2023-08-08T10:45:02.376Z,5.63
2023-08-08T10:47:35.199Z,10.20
2023-08-08T10:50:10.242Z,13.20
2023-08-08T10:52:57.301Z,27.33
2023-08-08T10:55:37.207Z,12.43
2023-08-08T10:58:13.836Z,9.57
2023-08-08T11:00:41.852Z,6.70
2023-08-08T11:03:10.213Z,8.60
2023-08-08T11:05:39.473Z,8.90
2023-08-08T11:08:08.280Z,10.23
2023-08-08T11:10:40.784Z,8.43
2023-08-08T11:13:09.466Z,9.13
2023-08-08T11:15:38.107Z,4.38
2023-08-08T11:18:06.925Z,7.35
2023-08-08T11:20:36.441Z,7.75
2023-08-08T11:23:06.815Z,5.40
2023-08-08T11:25:33.853Z,9.30
2023-08-08T11:28:01.624Z,9.05
2023-08-08T11:30:38.181Z,11.02
2023-08-08T11:35:36.242Z,7.72
2023-08-08T11:38:05.585Z,20.63
2023-08-08T11:40:33.453Z,9.45
2023-08-08T11:43:01.075Z,5.47
2023-08-08T11:45:29.254Z,7.53
2023-08-08T11:47:57.615Z,10.93
2023-08-08T11:50:28.531Z,10.68
2023-08-08T11:52:56.759Z,6.78
2023-08-08T11:55:30.827Z,7.18
2023-08-08T11:58:00.906Z,10.07
2023-08-08T12:00:31.720Z,8.20
2023-08-08T12:03:02.272Z,7.55
2023-08-08T12:05:29.731Z,6.63
2023-08-08T12:07:57.085Z,9.25
2023-08-08T12:10:27.075Z,7.55
2023-08-08T12:13:01.053Z,6.18
2023-08-08T12:15:36.491Z,8.55
2023-08-08T12:18:04.827Z,8.90
2023-08-08T12:20:33.023Z,6.03
2023-08-08T12:23:01.170Z,6.70
2023-08-08T12:25:28.675Z,6.85
2023-08-08T12:27:55.926Z,5.38
2023-08-08T12:30:23.025Z,7.28
2023-08-08T12:32:50.064Z,8.55
2023-08-08T12:35:17.984Z,9.77
2023-08-08T12:37:45.029Z,6.53
2023-08-08T12:40:13.972Z,8.82
2023-08-08T12:42:41.008Z,7.20
2023-08-08T12:45:08.644Z,8.55
2023-08-08T12:47:38.504Z,5.70
2023-08-08T12:50:07.340Z,6.18
2023-08-08T12:52:34.871Z,5.70
2023-08-08T12:55:02.019Z,5.22
2023-08-08T12:57:29.285Z,5.93
2023-08-08T12:59:56.383Z,5.28
2023-08-08T13:02:23.395Z,7.30
2023-08-08T13:04:50.464Z,7.13
2023-08-08T13:07:17.822Z,6.30
2023-08-08T13:09:44.746Z,4.82
2023-08-08T13:12:11.688Z,6.63
2023-08-08T13:14:38.639Z,10.18
2023-08-08T13:17:05.682Z,7.63
2023-08-08T13:19:32.605Z,9.15
2023-08-08T13:21:59.871Z,9.48
2023-08-08T13:24:27.140Z,8.43
2023-08-08T13:26:54.078Z,6.60
2023-08-08T13:29:24.004Z,5.78
2023-08-08T13:31:50.968Z,8.52
2023-08-08T13:34:17.958Z,6.50
2023-08-08T13:36:44.897Z,3.90
2023-08-08T13:39:11.905Z,3.05
2023-08-08T13:41:39.091Z,4.57
2023-08-08T13:44:06.222Z,2.47
2023-08-08T13:46:33.286Z,4.97
2023-08-08T13:49:00.243Z,2.92
2023-08-08T13:51:27.213Z,4.95
2023-08-08T13:53:54.147Z,2.72
2023-08-08T13:56:21.754Z,6.22
2023-08-08T13:58:48.669Z,2.88
2023-08-08T14:01:15.735Z,3.30
2023-08-08T14:03:42.846Z,4.72
2023-08-08T14:06:10.039Z,5.28
2023-08-08T14:08:37.028Z,5.78
2023-08-08T14:11:03.989Z,6.40
2023-08-08T14:13:30.871Z,5.22
2023-08-08T14:15:57.784Z,5.32
2023-08-08T14:18:24.860Z,6.90
2023-08-08T14:20:51.779Z,5.65
2023-08-08T14:23:18.686Z,6.55
2023-08-08T14:25:45.593Z,5.60
2023-08-08T14:28:12.537Z,5.30
2023-08-08T14:30:39.502Z,6.18
2023-08-08T14:33:06.493Z,9.95
2023-08-08T14:35:33.459Z,7.53
2023-08-08T14:38:00.432Z,4.90
2023-08-08T14:40:29.027Z,5.28
2023-08-08T14:42:56.678Z,6.43
2023-08-08T14:45:25.488Z,6.68
2023-08-08T14:47:52.440Z,5.18
2023-08-08T14:50:19.696Z,5.20
2023-08-08T14:52:46.890Z,5.95
2023-08-08T14:55:14.040Z,6.47
2023-08-08T14:57:41.027Z,7.25
2023-08-08T15:00:10.437Z,9.05
2023-08-08T15:02:37.504Z,5.10
2023-08-08T15:05:05.160Z,4.32
2023-08-08T15:07:32.181Z,4.55
2023-08-08T15:09:59.083Z,4.32
2023-08-08T15:12:26.156Z,4.75
2023-08-08T15:14:53.242Z,5.18
2023-08-08T15:17:20.166Z,4.10
2023-08-08T15:19:47.227Z,4.85
2023-08-08T15:22:14.148Z,5.93
2023-08-08T15:24:41.101Z,6.45
2023-08-08T15:27:08.011Z,5.00
2023-08-08T15:29:34.958Z,4.82
2023-08-08T15:32:01.969Z,3.35
2023-08-08T15:34:28.941Z,3.42
2023-08-08T15:36:59.458Z,4.70
2023-08-08T15:39:26.715Z,4.75
2023-08-08T15:41:53.849Z,4.95
2023-08-08T15:44:20.865Z,4.95
2023-08-08T15:46:48.660Z,7.57
2023-08-08T15:49:16.425Z,4.78
2023-08-08T15:51:43.625Z,5.82
2023-08-08T15:54:10.612Z,7.55
2023-08-08T15:56:39.359Z,4.20
2023-08-08T15:59:07.075Z,2.35
2023-08-08T16:01:34.823Z,4.28
2023-08-08T16:04:01.902Z,3.85
2023-08-08T16:06:30.120Z,3.80
2023-08-08T16:08:57.134Z,7.18
2023-08-08T16:11:24.124Z,6.93
2023-08-08T16:13:51.207Z,5.07
2023-08-08T16:16:18.166Z,5.25
2023-08-08T16:18:45.050Z,5.30
2023-08-08T16:21:12.348Z,6.38
2023-08-08T16:23:39.378Z,5.10
2023-08-08T16:26:06.443Z,4.18
2023-08-08T16:28:33.550Z,4.22
2023-08-08T16:31:00.627Z,7.35
2023-08-08T16:33:27.637Z,6.30
2023-08-08T16:35:58.401Z,4.50
2023-08-08T16:38:25.466Z,2.75
2023-08-08T16:40:52.398Z,6.63
2023-08-08T16:43:19.374Z,4.63
2023-08-08T16:45:46.324Z,5.10
2023-08-08T16:48:13.233Z,4.85
2023-08-08T16:50:40.184Z,3.30
2023-08-08T16:53:07.711Z,4.25
2023-08-08T16:55:34.663Z,2.40
2023-08-08T16:58:01.578Z,3.53
2023-08-08T17:00:28.525Z,3.15
2023-08-08T17:02:55.501Z,5.18
2023-08-08T17:05:22.501Z,5.72
2023-08-08T17:07:49.543Z,3.08
2023-08-08T17:10:16.491Z,5.18
2023-08-08T17:12:43.574Z,3.85
2023-08-08T17:15:10.901Z,4.03
2023-08-08T17:17:37.966Z,3.13
2023-08-08T17:20:06.529Z,2.78
2023-08-08T17:22:34.552Z,6.43
2023-08-08T17:25:01.578Z,2.78
2023-08-08T17:27:29.147Z,6.50
2023-08-08T17:29:56.103Z,3.72
2023-08-08T17:32:23.067Z,4.15
2023-08-08T17:34:50.121Z,3.78
2023-08-08T17:37:17.127Z,3.53
2023-08-08T17:39:44.099Z,4.10
2023-08-08T17:42:11.209Z,8.88
2023-08-08T17:44:38.129Z,7.65
2023-08-08T17:47:05.054Z,7.15
2023-08-08T17:49:31.985Z,5.90
2023-08-08T17:51:59.285Z,6.05
2023-08-08T17:54:26.557Z,5.53
2023-08-08T17:56:53.659Z,4.68
2023-08-08T17:59:21.109Z,6.35
2023-08-08T18:01:48.362Z,4.65
2023-08-08T18:04:15.353Z,11.00
2023-08-08T18:06:42.335Z,11.50
2023-08-08T18:09:09.298Z,11.05
2023-08-08T18:11:39.648Z,12.63
2023-08-08T18:14:08.263Z,9.20
2023-08-08T18:16:37.055Z,10.88
2023-08-08T18:19:05.091Z,10.60
2023-08-08T18:21:33.102Z,8.95
2023-08-08T18:24:00.303Z,12.70
2023-08-08T18:26:27.926Z,13.77
2023-08-08T18:28:55.018Z,12.50
2023-08-08T18:31:22.173Z,11.00
2023-08-08T18:33:49.222Z,15.43
2023-08-08T18:36:16.121Z,6.82
2023-08-08T18:38:43.789Z,8.38
2023-08-08T18:41:11.346Z,7.93
2023-08-08T18:43:38.294Z,7.45
2023-08-08T18:46:06.950Z,8.10
2023-08-08T18:48:33.983Z,6.03
2023-08-08T18:51:01.195Z,13.85
2023-08-08T18:53:28.273Z,25.15
2023-08-08T18:55:55.173Z,17.23
2023-08-08T18:58:22.143Z,13.73
2023-08-08T19:00:49.979Z,18.00
2023-08-08T19:03:18.749Z,26.30
2023-08-08T19:05:46.188Z,21.70
2023-08-08T19:08:13.262Z,21.35
2023-08-08T19:10:40.344Z,24.48
2023-08-08T19:13:09.980Z,30.45
2023-08-08T19:15:38.245Z,26.80
2023-08-08T19:18:05.389Z,27.02
2023-08-08T19:20:32.338Z,30.30
2023-08-08T19:22:59.514Z,38.10
2023-08-08T19:25:26.575Z,32.03
2023-08-08T19:27:53.536Z,36.63
2023-08-08T19:30:22.656Z,18.77
2023-08-08T19:32:50.135Z,15.52
2023-08-08T19:35:17.230Z,13.73
2023-08-08T19:37:48.321Z,11.77
2023-08-08T19:40:16.866Z,10.75
2023-08-08T19:42:44.132Z,10.68
2023-08-08T19:45:11.018Z,7.82
2023-08-08T19:47:38.263Z,10.45
2023-08-08T19:50:06.120Z,9.07
2023-08-08T19:52:33.245Z,9.15
2023-08-08T19:55:00.168Z,12.10
2023-08-08T19:57:27.184Z,9.55
2023-08-08T19:59:54.865Z,12.07
2023-08-08T20:02:23.393Z,8.55
2023-08-08T20:04:52.414Z,15.25
2023-08-08T20:07:19.392Z,20.05
2023-08-08T20:09:46.405Z,12.02
2023-08-08T20:12:13.370Z,10.93
2023-08-08T20:14:40.403Z,12.48
2023-08-08T20:17:07.298Z,6.68
2023-08-08T20:19:35.042Z,9.18
2023-08-08T20:22:03.174Z,8.68
2023-08-08T20:24:30.812Z,7.50
2023-08-08T20:26:57.776Z,6.57
2023-08-08T20:29:24.843Z,9.52
2023-08-08T20:31:51.870Z,7.47
2023-08-08T20:34:18.821Z,8.10
2023-08-08T20:36:45.762Z,7.72
2023-08-08T20:39:13.609Z,9.38
2023-08-08T20:41:43.583Z,9.30
2023-08-08T20:44:10.583Z,8.60
2023-08-08T20:46:37.964Z,10.70
2023-08-08T20:49:05.189Z,9.88
2023-08-08T20:51:32.444Z,9.80
2023-08-08T20:54:00.453Z,7.80
2023-08-08T20:56:27.343Z,12.57
2023-08-08T20:58:54.561Z,10.80
2023-08-08T21:01:21.523Z,9.50
2023-08-08T21:03:49.676Z,12.55
2023-08-08T21:06:16.646Z,10.25
2023-08-08T21:08:44.898Z,10.32
2023-08-08T21:11:11.801Z,10.00
2023-08-08T21:13:38.758Z,9.48
2023-08-08T21:16:06.253Z,6.85
2023-08-08T21:18:33.234Z,8.85
2023-08-08T21:21:02.871Z,7.03
2023-08-08T21:23:31.332Z,8.00
2023-08-08T21:25:58.381Z,7.60
2023-08-08T21:28:25.989Z,5.15
2023-08-08T21:30:53.176Z,6.05
2023-08-08T21:33:21.171Z,4.20
2023-08-08T21:35:52.497Z,7.43
2023-08-08T21:38:19.447Z,6.90
2023-08-08T21:40:47.258Z,5.03
2023-08-08T21:43:14.175Z,5.07
2023-08-08T21:45:41.429Z,6.45
2023-08-08T21:48:08.355Z,6.28
2023-08-08T21:50:35.264Z,4.32
2023-08-08T21:53:02.175Z,10.30
2023-08-08T21:55:29.144Z,2.88
2023-08-08T21:57:56.028Z,5.78
2023-08-08T22:00:22.946Z,4.10
2023-08-08T22:02:50.184Z,3.85
2023-08-08T22:05:17.257Z,4.93
2023-08-08T22:07:45.403Z,4.95
2023-08-08T22:10:12.612Z,5.13
2023-08-08T22:12:39.530Z,5.60
2023-08-08T22:15:07.787Z,3.83
2023-08-08T22:17:34.702Z,4.20
2023-08-08T22:20:01.781Z,4.25
2023-08-08T22:22:28.665Z,6.03
2023-08-08T22:24:55.584Z,3.63
2023-08-08T22:27:22.477Z,5.47
2023-08-08T22:29:49.353Z,3.65
2023-08-08T22:32:16.245Z,3.55
2023-08-08T22:34:43.093Z,5.30
2023-08-08T22:37:09.993Z,3.28
2023-08-08T22:39:36.868Z,4.18
2023-08-08T22:42:04.080Z,4.47
2023-08-08T22:44:32.366Z,5.65
2023-08-08T22:46:59.539Z,8.40
2023-08-08T22:49:26.758Z,6.55
2023-08-08T22:51:53.658Z,7.03
2023-08-08T22:54:20.518Z,5.10
2023-08-08T22:56:47.443Z,5.38
2023-08-08T22:59:14.377Z,5.97
2023-08-08T23:01:41.453Z,3.88
2023-08-08T23:04:08.453Z,4.53
2023-08-08T23:06:35.336Z,5.90
2023-08-08T23:09:02.219Z,4.80
2023-08-08T23:11:29.072Z,6.20
2023-08-08T23:13:56.282Z,5.63
2023-08-08T23:16:23.231Z,5.80
2023-08-08T23:18:50.141Z,6.68
2023-08-08T23:21:17.075Z,3.97
2023-08-08T23:23:44.045Z,5.32
2023-08-08T23:26:10.991Z,3.35
2023-08-08T23:28:37.985Z,5.28
2023-08-08T23:31:05.416Z,4.35
2023-08-08T23:33:32.312Z,2.67
2023-08-08T23:35:59.337Z,5.07
2023-08-08T23:38:26.412Z,6.55
2023-08-08T23:40:53.323Z,5.72
2023-08-08T23:43:20.229Z,6.03
2023-08-08T23:45:47.161Z,5.82
2023-08-08T23:48:14.165Z,5.82
2023-08-08T23:50:41.161Z,6.60
2023-08-08T23:53:08.173Z,6.20
2023-08-08T23:55:35.337Z,5.50
2023-08-08T23:58:02.268Z,4.70
